Language selection

Features

My Weather Profile Weather Topics  | 

Douglas Channel: Past 24 Hour Conditions

 

West Moresby - 46208

07:00 AM PST 24 January 2020Buoy position: 52.52N 132.68W
Disclaimer

This table is a summary of hourly weather conditions for the past 24 hours.
Please note that these observations might not always be representative of weather conditions over their associated marine area.

Date / Time
(PST)
Wind(knots) Wave height(m) Wave period(s) Pressure(kPa) Air tempC) Water tempC)
24 January 2020
7:00 S 13 gust 17 3.1 9.0 99.4 8 N/A
6:00 S 16 gust 19 3.2 16.0 99.4 8 N/A
5:00 S 16 gust 19 3.2 17.0 99.5 8 N/A
4:00 SSE 13 gust 17 3.0 10.0 99.5 8 N/A
3:00 SSE 16 gust 19 3.1 10.0 99.5 8 N/A
2:00 SSE 16 gust 17 3.1 10.0 99.5 8 N/A
1:00 SSE 16 gust 19 3.1 11.0 99.6 8 N/A
0:00 SSE 17 gust 22 3.3 10.0 99.6 8 N/A
23 January 2020
23:00 SSE 17 gust 19 3.0 10.0 99.6 8 N/A
22:00 SSE 16 gust 19 3.2 10.0 99.7 8 N/A
21:00 SSE 17 gust 22 3.4 17.0 99.7 8 N/A
20:00 SSE 17 gust 22 3.3 17.0 99.8 8 N/A
19:00 SSE 19 gust 22 2.9 17.0 99.8 8 N/A
18:00 SSE 17 gust 22 3.0 18.0 99.8 8 N/A
17:00 S 16 gust 19 2.9 10.0 99.8 8 N/A
16:00 S 17 gust 22 2.9 18.0 99.8 8 N/A
15:00 SSE 17 gust 22 2.9 9.0 99.8 8 N/A
14:00 SSE 16 gust 19 2.9 20.0 99.9 8 N/A
13:00 SSE 16 gust 19 2.8 9.0 99.9 8 N/A
12:00 S 13 gust 17 2.9 9.0 99.9 8 N/A
11:00 S 13 gust 16 2.7 8.0 99.9 8 N/A
10:00 S 12 gust 16 3.0 9.0 99.9 8 N/A
9:00 S 10 gust 13 3.2 9.0 99.8 8 N/A
8:00 SSW 13 gust 17 2.8 8.0 99.7 8 N/A
7:00 SSW 13 gust 17 2.8 9.0 99.7 8 N/A

Zoom-in to make a selection

Map of Pacific - North Coast marine weather areas Middle Nomad - 46004 South Nomad - 46036 Dixon Entrance Central - 46145 South Moresby - 46147 Nanakwa Shoal - 46181 North Hecate Strait - 46183 North Nomad - 46184 South Hecate Strait - 46185 West Sea Otter - 46204 West Dixon Entrance - 46205 East Dellwood - 46207 West Moresby - 46208 Sartine Island Cape St.James Kindakun Rocks Langara Island Masset Municipal Airport Rose Spit Sandspit Airport Bella Bella Airport Bella Coola Airport Bonilla Island Cathedral Point Cumshewa Island Grey Islet Holland Rock Lucy Islands Lightstation Prince Rupert Airport
Legend:
buoy Buoy
land station Land Station

Pacific - North Coast Area

Another Region

What we are doing

Date modified: